Flugplatz Augsburg (EDMA)

Hier findest Du alle Informationen zum Flugplatz Augsburg (EDMA).

Informationen für Piloten zum Flugplatz Augsburg

Hier findest Du alle relevanten Informationen, die Du als Pilot benötigst, um Augsburg anzufliegen.

Flugplatz: Augsburg ICAO-Code: EDMA
Frequenz Turm: 124,975 Mhz GAFOR Gebiet: 72
Frequenz Ground: 124,975 Mhz Mogas: nein
Platzrunde: - Landegebühr: -
Platzhöhe: - Sunrise: 05:44 Uhr UTC
Pisten: 07/25 - 1.280 m x 30 m, ASPH Sunset: 16:17 Uhr UTC

Flugwetter am Flugplatz Augsburg

Die METAR Information stammen aus EDMA.

METAR Code:
2020/10/16 16:50
EDMA 161650Z 33004KT 300V360 9999 FEW010 BKN033 OVC039 08/07 Q1016

Temperatur: 3,8 °C Niederschlag: - Wind: 1,0 kt
Temperatur (min.): 3,0 °C Luftdruck: 1011 hPa Windrichtung: -
Temperatur (max.): 4,4 °C Luftfeuchtigkeit: 100 % Bewölkung: 8/8

Flugschulen am Flugplatz Augsburg

Am Flugplatz Augsburg gibt es 2 Flugschulen.

Benachbarte Flugplätze und Flugschulen

Es gibt 16 weitere Flugplätze in einem Umkreis von 50 km um den Flugplatz Augsburg.

Jetzt anmelden

Passwort vergessen

Umfrage Archiv

Wären Rettungsgeräte keine Pflicht mehr, würdet Ihr Euer UL trotzdem mit einem ausstatten?

Ja
86.4 %
Nein
13.6 %
Stimmen: 354 | Diskussion
Anzeige: Roland Aircraft
Statistik Alle Mitglieder

Aktuell sind 58 Besucher online, davon 2 Mitglieder und 56 Gäste.


Mitglieder online:
Ralle  spalter83 

Anzeige: VFR Sprechfunk Simulator


Anzeige: Pocket FMS